createdAt,value
2022-09-28T00:00:45.540Z,993
2022-09-28T00:01:45.717Z,993
2022-09-28T00:02:45.714Z,993
2022-09-28T00:03:45.532Z,993
2022-09-28T00:04:45.540Z,992.9
2022-09-28T00:05:45.537Z,992.9
2022-09-28T00:07:45.532Z,992.9
2022-09-28T00:08:45.538Z,992.9
2022-09-28T00:09:45.551Z,992.9
2022-09-28T00:10:45.550Z,992.9
2022-09-28T00:11:45.537Z,992.9
2022-09-28T00:12:45.550Z,992.9
2022-09-28T00:13:45.535Z,992.9
2022-09-28T00:14:45.542Z,992.9
2022-09-28T00:15:45.564Z,992.9
2022-09-28T00:16:45.609Z,992.8
2022-09-28T00:17:45.538Z,992.8
2022-09-28T00:18:45.543Z,992.8
2022-09-28T00:20:45.535Z,992.8
2022-09-28T00:21:45.540Z,992.8
2022-09-28T00:22:45.536Z,992.8
2022-09-28T00:23:45.541Z,992.8
2022-09-28T00:24:45.542Z,992.9
2022-09-28T00:25:45.541Z,992.8
2022-09-28T00:27:45.546Z,992.8
2022-09-28T00:28:45.543Z,992.8
2022-09-28T00:29:45.546Z,992.8
2022-09-28T00:30:45.543Z,992.8
2022-09-28T00:31:45.634Z,992.8
2022-09-28T00:32:45.549Z,992.8
2022-09-28T00:33:45.542Z,992.7
2022-09-28T00:34:45.543Z,992.8
2022-09-28T00:35:45.548Z,992.8
2022-09-28T00:36:45.548Z,992.8
2022-09-28T00:37:45.546Z,992.7
2022-09-28T00:38:45.544Z,992.7
2022-09-28T00:39:45.549Z,992.7
2022-09-28T00:40:45.680Z,992.7
2022-09-28T00:42:45.552Z,992.7
2022-09-28T00:43:45.551Z,992.7
2022-09-28T00:44:45.550Z,992.7
2022-09-28T00:45:45.611Z,992.7
2022-09-28T00:46:45.571Z,992.7
2022-09-28T00:47:45.567Z,992.6
2022-09-28T00:48:45.550Z,992.6
2022-09-28T00:49:45.548Z,992.7
2022-09-28T00:50:45.544Z,992.7
2022-09-28T00:51:45.550Z,992.7
2022-09-28T00:52:45.555Z,992.7
2022-09-28T00:53:45.553Z,992.7
2022-09-28T00:54:45.548Z,992.7
2022-09-28T00:55:45.546Z,992.7
2022-09-28T00:56:45.554Z,992.6
2022-09-28T00:57:45.556Z,992.6
2022-09-28T00:58:45.543Z,992.6
2022-09-28T00:59:45.556Z,992.7
2022-09-28T01:00:45.594Z,992.6
2022-09-28T01:01:45.623Z,992.6
2022-09-28T01:02:45.555Z,992.6
2022-09-28T01:03:45.605Z,992.6
2022-09-28T01:04:45.553Z,992.6
2022-09-28T01:05:45.553Z,992.6
2022-09-28T01:07:45.564Z,992.6
2022-09-28T01:08:45.557Z,992.5
2022-09-28T01:09:45.560Z,992.5
2022-09-28T01:10:45.556Z,992.5
2022-09-28T01:11:45.582Z,992.5
2022-09-28T01:12:45.557Z,992.6
2022-09-28T01:13:45.556Z,992.5
2022-09-28T01:14:45.563Z,992.5
2022-09-28T01:15:45.566Z,992.5
2022-09-28T01:16:45.636Z,992.5
2022-09-28T01:17:45.594Z,992.5
2022-09-28T01:18:45.559Z,992.5
2022-09-28T01:20:45.567Z,992.5
2022-09-28T01:21:45.565Z,992.5
2022-09-28T01:22:45.567Z,992.5
2022-09-28T01:23:45.558Z,992.5
2022-09-28T01:24:45.558Z,992.5
2022-09-28T01:25:45.582Z,992.5
2022-09-28T01:26:45.553Z,992.5
2022-09-28T01:27:45.569Z,992.5
2022-09-28T01:28:45.562Z,992.5
2022-09-28T01:29:45.565Z,992.5
2022-09-28T01:30:45.565Z,992.5
2022-09-28T01:31:45.610Z,992.5
2022-09-28T01:32:45.565Z,992.5
2022-09-28T01:33:45.570Z,992.5
2022-09-28T01:34:45.562Z,992.5
2022-09-28T01:35:45.563Z,992.5
2022-09-28T01:36:45.562Z,992.5
2022-09-28T01:37:45.568Z,992.5
2022-09-28T01:38:45.560Z,992.5
2022-09-28T01:39:45.564Z,992.5
2022-09-28T01:40:45.604Z,992.5
2022-09-28T01:41:45.565Z,992.5
2022-09-28T01:42:45.567Z,992.5
2022-09-28T01:43:45.572Z,992.5
2022-09-28T01:44:45.564Z,992.5
2022-09-28T01:45:45.725Z,992.4
2022-09-28T01:46:45.576Z,992.5
2022-09-28T01:47:45.569Z,992.5
2022-09-28T01:48:45.593Z,992.5
2022-09-28T01:50:45.568Z,992.5
2022-09-28T01:51:45.581Z,992.5
2022-09-28T01:52:45.578Z,992.5
2022-09-28T01:53:45.572Z,992.5
2022-09-28T01:55:45.572Z,992.4
2022-09-28T01:56:45.568Z,992.4
2022-09-28T01:57:45.574Z,992.4
2022-09-28T01:58:45.574Z,992.5
2022-09-28T01:59:45.587Z,992.4
2022-09-28T02:00:45.614Z,992.5
2022-09-28T02:01:45.699Z,992.4
2022-09-28T02:02:45.574Z,992.4
2022-09-28T02:03:45.578Z,992.5
2022-09-28T02:04:45.572Z,992.5
2022-09-28T02:05:45.577Z,992.5
2022-09-28T02:06:45.586Z,992.4
2022-09-28T02:07:45.576Z,992.5
2022-09-28T02:08:45.578Z,992.5
2022-09-28T02:09:45.586Z,992.5
2022-09-28T02:10:45.584Z,992.4
2022-09-28T02:11:45.587Z,992.5
2022-09-28T02:13:45.574Z,992.5
2022-09-28T02:14:45.582Z,992.5
2022-09-28T02:15:45.583Z,992.5
2022-09-28T02:16:45.643Z,992.5
2022-09-28T02:17:45.585Z,992.5
2022-09-28T02:18:45.581Z,992.5
2022-09-28T02:19:45.603Z,992.5
2022-09-28T02:20:45.586Z,992.5
2022-09-28T02:21:45.572Z,992.5
2022-09-28T02:22:45.580Z,992.5
2022-09-28T02:23:45.586Z,992.5
2022-09-28T02:24:45.581Z,992.5
2022-09-28T02:25:45.583Z,992.5
2022-09-28T02:26:45.649Z,992.5
2022-09-28T02:27:45.586Z,992.5
2022-09-28T02:28:45.581Z,992.5
2022-09-28T02:29:45.583Z,992.5
2022-09-28T02:30:45.578Z,992.5
2022-09-28T02:31:45.642Z,992.5
2022-09-28T02:32:45.583Z,992.5
2022-09-28T02:33:45.579Z,992.5
2022-09-28T02:34:45.583Z,992.5
2022-09-28T02:35:45.587Z,992.5
2022-09-28T02:36:45.588Z,992.5
2022-09-28T02:37:45.588Z,992.5
2022-09-28T02:38:45.582Z,992.5
2022-09-28T02:39:45.583Z,992.6
2022-09-28T02:40:45.667Z,992.6
2022-09-28T02:41:45.591Z,992.6
2022-09-28T02:42:45.592Z,992.6
2022-09-28T02:44:45.589Z,992.6
2022-09-28T02:45:45.671Z,992.6
2022-09-28T02:46:45.590Z,992.6
2022-09-28T02:47:45.592Z,992.7
2022-09-28T02:48:52.253Z,992.6
2022-09-28T02:49:45.585Z,992.6
2022-09-28T02:50:45.610Z,992.6
2022-09-28T02:51:45.589Z,992.5
2022-09-28T02:52:45.588Z,992.6
2022-09-28T02:53:45.597Z,992.6
2022-09-28T02:54:45.587Z,992.6
2022-09-28T02:55:45.601Z,992.6
2022-09-28T02:56:45.594Z,992.6
2022-09-28T02:57:45.610Z,992.6
2022-09-28T02:58:45.589Z,992.6
2022-09-28T03:00:45.645Z,992.6
2022-09-28T03:01:45.659Z,992.6
2022-09-28T03:02:45.594Z,992.6
2022-09-28T03:03:45.611Z,992.6
2022-09-28T03:04:45.612Z,992.6
2022-09-28T03:05:45.591Z,992.6
2022-09-28T03:06:45.596Z,992.6
2022-09-28T03:07:45.598Z,992.6
2022-09-28T03:09:45.603Z,992.6
2022-09-28T03:10:45.610Z,992.6
2022-09-28T03:11:45.600Z,992.6
2022-09-28T03:12:45.599Z,992.6
2022-09-28T03:13:45.611Z,992.5
2022-09-28T03:14:45.606Z,992.6
2022-09-28T03:15:48.866Z,992.5
2022-09-28T03:16:45.663Z,992.5
2022-09-28T03:18:45.600Z,992.5
2022-09-28T03:19:45.593Z,992.6
2022-09-28T03:20:45.591Z,992.6
2022-09-28T03:21:45.626Z,992.5
2022-09-28T03:23:00.236Z,992.5
2022-09-28T03:23:45.604Z,992.5
2022-09-28T03:24:45.605Z,992.5
2022-09-28T03:25:45.604Z,992.5
2022-09-28T03:26:45.599Z,992.5
2022-09-28T03:27:45.598Z,992.5
2022-09-28T03:28:45.602Z,992.5
2022-09-28T03:29:45.606Z,992.5
2022-09-28T03:30:45.601Z,992.5
2022-09-28T03:31:45.646Z,992.5
2022-09-28T03:32:45.598Z,992.5
2022-09-28T03:33:45.596Z,992.5
2022-09-28T03:34:45.603Z,992.5
2022-09-28T03:35:45.602Z,992.6
2022-09-28T03:37:45.604Z,992.5
2022-09-28T03:38:45.599Z,992.5
2022-09-28T03:39:45.619Z,992.6
2022-09-28T03:40:45.736Z,992.6
2022-09-28T03:41:45.672Z,992.6
2022-09-28T03:42:45.609Z,992.6
2022-09-28T03:43:45.605Z,992.6
2022-09-28T03:44:45.609Z,992.6
2022-09-28T03:45:45.718Z,992.6
2022-09-28T03:46:45.610Z,992.6
2022-09-28T03:47:45.606Z,992.6
2022-09-28T03:48:45.601Z,992.5
2022-09-28T03:49:45.609Z,992.6
2022-09-28T03:50:45.609Z,992.5
2022-09-28T03:51:45.610Z,992.6
2022-09-28T03:52:45.633Z,992.6
2022-09-28T03:53:45.602Z,992.6
2022-09-28T03:54:49.068Z,992.6
2022-09-28T03:55:45.615Z,992.6
2022-09-28T03:56:45.607Z,992.5
2022-09-28T03:58:45.608Z,992.5
2022-09-28T03:59:45.609Z,992.5
2022-09-28T04:00:45.688Z,992.5
2022-09-28T04:01:45.715Z,992.5
2022-09-28T04:02:45.617Z,992.5
2022-09-28T04:04:45.616Z,992.6
2022-09-28T04:05:45.613Z,992.6
2022-09-28T04:06:45.609Z,992.6
2022-09-28T04:07:46.177Z,992.6
2022-09-28T04:08:45.606Z,992.6
2022-09-28T04:09:45.614Z,992.6
2022-09-28T04:10:45.640Z,992.6
2022-09-28T04:12:02.659Z,992.6
2022-09-28T04:12:45.612Z,992.6
2022-09-28T04:13:45.617Z,992.6
2022-09-28T04:14:45.615Z,992.6
2022-09-28T04:16:45.720Z,992.6
2022-09-28T04:17:45.614Z,992.6
2022-09-28T04:19:45.617Z,992.6
2022-09-28T04:20:45.621Z,992.6
2022-09-28T04:21:45.626Z,992.7
2022-09-28T04:22:45.617Z,992.6
2022-09-28T04:23:45.639Z,992.6
2022-09-28T04:24:45.622Z,992.6
2022-09-28T04:25:45.618Z,992.6
2022-09-28T04:26:45.628Z,992.6
2022-09-28T04:27:45.625Z,992.6
2022-09-28T04:28:45.624Z,992.6
2022-09-28T04:30:45.625Z,992.6
2022-09-28T04:31:45.688Z,992.7
2022-09-28T04:32:45.619Z,992.7
2022-09-28T04:33:45.621Z,992.7
2022-09-28T04:34:45.632Z,992.7
2022-09-28T04:35:45.627Z,992.7
2022-09-28T04:36:45.621Z,992.7
2022-09-28T04:37:45.624Z,992.7
2022-09-28T04:38:53.712Z,992.7
2022-09-28T04:39:48.352Z,992.7
2022-09-28T04:40:45.718Z,992.7
2022-09-28T04:41:45.620Z,992.7
2022-09-28T04:42:45.627Z,992.7
2022-09-28T04:43:45.627Z,992.7
2022-09-28T04:44:45.626Z,992.7
2022-09-28T04:45:45.663Z,992.7
2022-09-28T04:46:45.626Z,992.7
2022-09-28T04:47:45.631Z,992.7
2022-09-28T04:48:45.632Z,992.7
2022-09-28T04:49:45.633Z,992.7
2022-09-28T04:50:45.629Z,992.7
2022-09-28T04:51:45.622Z,992.7
2022-09-28T04:52:45.626Z,992.7
2022-09-28T04:53:45.626Z,992.7
2022-09-28T04:54:45.649Z,992.7
2022-09-28T04:56:45.630Z,992.7
2022-09-28T04:57:45.622Z,992.7
2022-09-28T04:58:50.310Z,992.7
2022-09-28T04:59:45.630Z,992.7
2022-09-28T05:00:45.665Z,992.7
2022-09-28T05:01:45.627Z,992.7
2022-09-28T05:02:45.707Z,992.7
2022-09-28T05:03:45.632Z,992.7
2022-09-28T05:05:45.629Z,992.7
2022-09-28T05:06:45.627Z,992.7
2022-09-28T05:07:45.646Z,992.7
2022-09-28T05:08:45.642Z,992.7
2022-09-28T05:09:45.634Z,992.7
2022-09-28T05:10:45.634Z,992.7
2022-09-28T05:11:45.645Z,992.7
2022-09-28T05:12:45.633Z,992.7
2022-09-28T05:13:45.716Z,992.6
2022-09-28T05:15:45.632Z,992.6
2022-09-28T05:16:45.738Z,992.7
2022-09-28T05:17:45.636Z,992.7
2022-09-28T05:18:45.642Z,992.7
2022-09-28T05:19:45.630Z,992.6
2022-09-28T05:20:45.636Z,992.6
2022-09-28T05:21:45.636Z,992.7
2022-09-28T05:22:45.634Z,992.7
2022-09-28T05:23:45.652Z,992.7
2022-09-28T05:24:45.640Z,992.7
2022-09-28T05:26:45.635Z,992.7
2022-09-28T05:27:45.642Z,992.7
2022-09-28T05:28:45.633Z,992.6
2022-09-28T05:29:45.635Z,992.7
2022-09-28T05:30:45.636Z,992.6
2022-09-28T05:31:45.691Z,992.7
2022-09-28T05:33:45.702Z,992.6
2022-09-28T05:34:45.631Z,992.6
2022-09-28T05:35:48.755Z,992.6
2022-09-28T05:36:45.635Z,992.6
2022-09-28T05:37:45.637Z,992.6
2022-09-28T05:38:45.638Z,992.6
2022-09-28T05:39:45.644Z,992.6
2022-09-28T05:40:45.742Z,992.6
2022-09-28T05:41:45.649Z,992.6
2022-09-28T05:42:45.643Z,992.6
2022-09-28T05:43:45.658Z,992.6
2022-09-28T05:44:45.671Z,992.5
2022-09-28T05:45:45.718Z,992.6
2022-09-28T05:46:45.647Z,992.6
2022-09-28T05:47:45.646Z,992.6
2022-09-28T05:48:45.646Z,992.6
2022-09-28T05:49:45.638Z,992.6
2022-09-28T05:50:45.672Z,992.6
2022-09-28T05:51:45.648Z,992.6
2022-09-28T05:52:45.652Z,992.6
2022-09-28T05:53:45.637Z,992.6
2022-09-28T05:54:45.644Z,992.7
2022-09-28T05:55:45.649Z,992.6
2022-09-28T05:56:45.669Z,992.6
2022-09-28T05:57:45.643Z,992.6
2022-09-28T05:58:45.648Z,992.6
2022-09-28T05:59:45.654Z,992.6
2022-09-28T06:00:45.704Z,992.6
2022-09-28T06:01:45.643Z,992.6
2022-09-28T06:02:45.670Z,992.7
2022-09-28T06:03:45.670Z,992.7
2022-09-28T06:04:45.651Z,992.7
2022-09-28T06:05:45.650Z,992.7
2022-09-28T06:07:45.655Z,992.7
2022-09-28T06:08:45.646Z,992.7
2022-09-28T06:09:45.648Z,992.7
2022-09-28T06:10:45.657Z,992.7
2022-09-28T06:11:45.650Z,992.7
2022-09-28T06:12:45.655Z,992.7
2022-09-28T06:13:45.653Z,992.7
2022-09-28T06:14:45.644Z,992.7
2022-09-28T06:16:45.712Z,992.8
2022-09-28T06:17:45.684Z,992.8
2022-09-28T06:19:45.653Z,992.8
2022-09-28T06:20:45.647Z,992.8
2022-09-28T06:21:45.649Z,992.8
2022-09-28T06:22:45.652Z,992.8
2022-09-28T06:23:48.943Z,992.8
2022-09-28T06:24:45.653Z,992.8
2022-09-28T06:25:45.655Z,992.9
2022-09-28T06:26:45.652Z,992.9
2022-09-28T06:27:45.683Z,992.8
2022-09-28T06:28:45.653Z,992.9
2022-09-28T06:29:45.656Z,992.9
2022-09-28T06:30:45.708Z,992.9
2022-09-28T06:31:45.662Z,992.9
2022-09-28T06:32:45.662Z,992.9
2022-09-28T06:33:45.660Z,992.9
2022-09-28T06:34:45.662Z,992.9
2022-09-28T06:35:45.661Z,993
2022-09-28T06:36:45.665Z,993
2022-09-28T06:37:45.667Z,993
2022-09-28T06:38:45.655Z,993
2022-09-28T06:39:45.698Z,993.1
2022-09-28T06:40:45.743Z,993.1
2022-09-28T06:41:45.662Z,993.1
2022-09-28T06:42:45.654Z,993.1
2022-09-28T06:43:45.669Z,993.1
2022-09-28T06:44:45.678Z,993.1
2022-09-28T06:45:45.716Z,993.2
2022-09-28T06:46:45.657Z,993.1
2022-09-28T06:47:45.660Z,993.2
2022-09-28T06:48:45.665Z,993.2
2022-09-28T06:49:45.663Z,993.2
2022-09-28T06:50:45.656Z,993.1
2022-09-28T06:51:45.659Z,993.2
2022-09-28T06:52:45.663Z,993.2
2022-09-28T06:53:45.655Z,993.2
2022-09-28T06:54:45.660Z,993.2
2022-09-28T06:55:45.668Z,993.2
2022-09-28T06:56:45.663Z,993.2
2022-09-28T06:57:45.662Z,993.2
2022-09-28T06:58:45.753Z,993.2
2022-09-28T06:59:45.658Z,993.2
2022-09-28T07:01:45.787Z,993.2
2022-09-28T07:02:45.776Z,993.2
2022-09-28T07:03:45.675Z,993.2
2022-09-28T07:04:45.663Z,993.2
2022-09-28T07:05:45.673Z,993.2
2022-09-28T07:06:45.663Z,993.2
2022-09-28T07:07:45.669Z,993.2
2022-09-28T07:08:52.835Z,993.2
2022-09-28T07:09:50.332Z,993.2
2022-09-28T07:10:45.672Z,993.2
2022-09-28T07:11:45.672Z,993.3
2022-09-28T07:12:45.672Z,993.2
2022-09-28T07:13:50.982Z,993.3
2022-09-28T07:14:48.072Z,993.3
2022-09-28T07:15:45.671Z,993.3
2022-09-28T07:17:07.730Z,993.3
2022-09-28T07:17:58.341Z,993.3
2022-09-28T07:18:45.677Z,993.3
2022-09-28T07:19:45.669Z,993.4
2022-09-28T07:20:53.816Z,993.3
2022-09-28T07:21:51.780Z,993.4
2022-09-28T07:22:45.679Z,993.4
2022-09-28T07:23:53.584Z,993.4
2022-09-28T07:24:45.670Z,993.4
2022-09-28T07:25:45.690Z,993.4
2022-09-28T07:26:45.677Z,993.4
2022-09-28T07:27:45.672Z,993.4
2022-09-28T07:28:45.675Z,993.4
2022-09-28T07:29:45.712Z,993.5
2022-09-28T07:30:45.778Z,993.5
2022-09-28T07:31:45.685Z,993.5
2022-09-28T07:32:45.672Z,993.5
2022-09-28T07:33:45.677Z,993.5
2022-09-28T07:34:45.683Z,993.5
2022-09-28T07:35:45.683Z,993.5
2022-09-28T07:36:45.678Z,993.6
2022-09-28T07:37:45.680Z,993.5
2022-09-28T07:38:45.683Z,993.6
2022-09-28T07:39:45.680Z,993.6
2022-09-28T07:40:48.382Z,993.6
2022-09-28T07:43:45.688Z,993.6
2022-09-28T07:44:45.688Z,993.6
2022-09-28T07:45:45.763Z,993.6
2022-09-28T07:46:45.679Z,993.7
2022-09-28T07:47:45.693Z,993.7
2022-09-28T07:48:45.686Z,993.7
2022-09-28T07:49:45.685Z,993.7
2022-09-28T07:50:45.686Z,993.7
2022-09-28T07:51:45.686Z,993.7
2022-09-28T07:53:45.684Z,993.7
2022-09-28T07:54:45.690Z,993.8
2022-09-28T07:55:45.686Z,993.7
2022-09-28T07:56:45.680Z,993.8
2022-09-28T07:57:45.698Z,993.8
2022-09-28T07:58:45.679Z,993.8
2022-09-28T07:59:45.687Z,993.8
2022-09-28T08:00:45.709Z,993.8
2022-09-28T08:01:45.731Z,993.8
2022-09-28T08:02:45.738Z,993.8
2022-09-28T08:03:45.688Z,993.8
2022-09-28T08:04:45.685Z,993.8
2022-09-28T08:05:45.685Z,993.8
2022-09-28T08:06:45.687Z,993.8
2022-09-28T08:07:45.692Z,993.8
2022-09-28T08:08:45.688Z,993.8
2022-09-28T08:09:45.717Z,993.9
2022-09-28T08:10:47.329Z,993.9
2022-09-28T08:11:45.702Z,993.9
2022-09-28T08:12:45.687Z,993.9
2022-09-28T08:13:45.767Z,993.9
2022-09-28T08:14:45.690Z,993.9
2022-09-28T08:15:45.688Z,993.9
2022-09-28T08:16:47.560Z,993.9
2022-09-28T08:17:45.692Z,993.9
2022-09-28T08:18:45.693Z,993.9
2022-09-28T08:19:45.700Z,993.9
2022-09-28T08:20:49.359Z,993.9
2022-09-28T08:21:45.698Z,993.9
2022-09-28T08:22:45.690Z,993.9
2022-09-28T08:24:45.693Z,993.9
2022-09-28T08:25:45.698Z,994
2022-09-28T08:26:45.697Z,994
2022-09-28T08:27:45.692Z,994
2022-09-28T08:28:45.692Z,994
2022-09-28T08:29:45.693Z,994
2022-09-28T08:30:45.890Z,994
2022-09-28T08:31:45.721Z,994
2022-09-28T08:32:45.693Z,994
2022-09-28T08:33:45.703Z,994.1
2022-09-28T08:34:45.698Z,994.1
2022-09-28T08:35:45.700Z,994.1
2022-09-28T08:36:45.697Z,994.1
2022-09-28T08:37:50.567Z,994.1
2022-09-28T08:38:45.700Z,994.1
2022-09-28T08:39:45.699Z,994.2
2022-09-28T08:40:45.761Z,994.2
2022-09-28T08:41:45.705Z,994.2
2022-09-28T08:42:45.704Z,994.2
2022-09-28T08:43:45.699Z,994.2
2022-09-28T08:44:45.698Z,994.2
2022-09-28T08:45:45.758Z,994.2
2022-09-28T08:46:45.696Z,994.2
2022-09-28T08:47:45.700Z,994.2
2022-09-28T08:48:52.390Z,994.2
2022-09-28T08:49:45.757Z,994.2
2022-09-28T08:50:45.723Z,994.2
2022-09-28T08:51:45.707Z,994.2
2022-09-28T08:52:45.698Z,994.3
2022-09-28T08:53:45.700Z,994.2
2022-09-28T08:54:45.701Z,994.2
2022-09-28T08:56:45.700Z,994.3
2022-09-28T08:57:45.708Z,994.3
2022-09-28T08:58:45.702Z,994.3
2022-09-28T08:59:45.699Z,994.3
2022-09-28T09:00:45.728Z,994.4
2022-09-28T09:01:45.783Z,994.3
2022-09-28T09:03:45.733Z,994.4
2022-09-28T09:04:45.705Z,994.4
2022-09-28T09:05:45.715Z,994.4
2022-09-28T09:06:45.714Z,994.5
2022-09-28T09:07:45.706Z,994.5
2022-09-28T09:08:45.715Z,994.5
2022-09-28T09:09:45.708Z,994.5
2022-09-28T09:10:45.708Z,994.5
2022-09-28T09:11:45.711Z,994.5
2022-09-28T09:12:45.753Z,994.5
2022-09-28T09:13:45.873Z,994.5
2022-09-28T09:14:45.708Z,994.5
2022-09-28T09:15:45.704Z,994.5
2022-09-28T09:16:45.741Z,994.5
2022-09-28T09:17:45.711Z,994.5
2022-09-28T09:18:45.712Z,994.5
2022-09-28T09:19:45.710Z,994.5
2022-09-28T09:20:45.712Z,994.5
2022-09-28T09:21:45.712Z,994.5
2022-09-28T09:22:45.706Z,994.5
2022-09-28T09:23:45.720Z,994.5
2022-09-28T09:24:45.714Z,994.5
2022-09-28T09:25:45.711Z,994.5
2022-09-28T09:26:45.707Z,994.6
2022-09-28T09:27:45.710Z,994.6
2022-09-28T09:28:45.780Z,994.6
2022-09-28T09:29:45.738Z,994.6
2022-09-28T09:30:45.739Z,994.6
2022-09-28T09:31:45.715Z,994.6
2022-09-28T09:32:45.710Z,994.6
2022-09-28T09:33:45.733Z,994.6
2022-09-28T09:34:45.714Z,994.6
2022-09-28T09:35:45.711Z,994.5
2022-09-28T09:36:45.718Z,994.6
2022-09-28T09:37:45.719Z,994.6
2022-09-28T09:38:45.713Z,994.6
2022-09-28T09:40:45.740Z,994.6
2022-09-28T09:41:45.716Z,994.6
2022-09-28T09:42:45.724Z,994.6
2022-09-28T09:43:45.719Z,994.6
2022-09-28T09:44:45.723Z,994.6
2022-09-28T09:45:45.774Z,994.6
2022-09-28T09:46:45.720Z,994.6
2022-09-28T09:47:45.721Z,994.6
2022-09-28T09:48:45.719Z,994.6
2022-09-28T09:49:45.717Z,994.6
2022-09-28T09:50:45.720Z,994.6
2022-09-28T09:51:45.730Z,994.6
2022-09-28T09:52:45.734Z,994.7
2022-09-28T09:54:45.719Z,994.6
2022-09-28T09:55:45.727Z,994.6
2022-09-28T09:56:45.727Z,994.6
2022-09-28T09:57:45.731Z,994.6
2022-09-28T09:58:45.720Z,994.6
2022-09-28T09:59:45.735Z,994.6
2022-09-28T10:00:45.728Z,994.6
2022-09-28T10:01:45.775Z,994.6
2022-09-28T10:02:45.826Z,994.6
2022-09-28T10:05:45.735Z,994.7
2022-09-28T10:06:45.726Z,994.7
2022-09-28T10:07:45.732Z,994.7
2022-09-28T10:08:45.727Z,994.7
2022-09-28T10:09:45.724Z,994.7
2022-09-28T10:10:45.761Z,994.7
2022-09-28T10:11:45.742Z,994.7
2022-09-28T10:12:45.731Z,994.7
2022-09-28T10:13:45.729Z,994.7
2022-09-28T10:15:45.753Z,994.7
2022-09-28T10:16:45.769Z,994.7
2022-09-28T10:17:45.728Z,994.7
2022-09-28T10:18:45.728Z,994.7
2022-09-28T10:19:45.736Z,994.7
2022-09-28T10:20:45.732Z,994.7
2022-09-28T10:21:45.735Z,994.7
2022-09-28T10:22:45.737Z,994.7
2022-09-28T10:23:45.735Z,994.7
2022-09-28T10:25:45.748Z,994.7
2022-09-28T10:26:45.732Z,994.7
2022-09-28T10:27:45.738Z,994.7
2022-09-28T10:28:45.735Z,994.7
2022-09-28T10:29:45.734Z,994.7
2022-09-28T10:30:45.861Z,994.7
2022-09-28T10:31:45.734Z,994.7
2022-09-28T10:32:45.741Z,994.7
2022-09-28T10:33:45.735Z,994.7
2022-09-28T10:34:50.181Z,994.7
2022-09-28T10:35:45.761Z,994.7
2022-09-28T10:36:45.731Z,994.8
2022-09-28T10:37:45.755Z,994.8
2022-09-28T10:38:45.749Z,994.8
2022-09-28T10:39:45.738Z,994.8
2022-09-28T10:40:45.869Z,994.8
2022-09-28T10:41:45.744Z,994.8
2022-09-28T10:42:45.742Z,994.8
2022-09-28T10:43:49.610Z,994.8
2022-09-28T10:44:45.741Z,994.8
2022-09-28T10:45:45.767Z,994.8
2022-09-28T10:46:45.754Z,994.8
2022-09-28T10:47:45.743Z,994.8
2022-09-28T10:48:45.741Z,994.8
2022-09-28T10:49:47.273Z,994.7
2022-09-28T10:51:45.738Z,994.8
2022-09-28T10:52:45.748Z,994.8
2022-09-28T10:53:45.750Z,994.8
2022-09-28T10:55:45.749Z,994.8
2022-09-28T10:57:45.749Z,994.8
2022-09-28T10:58:45.745Z,994.8
2022-09-28T10:59:45.752Z,994.7
2022-09-28T11:00:45.755Z,994.7
2022-09-28T11:01:45.848Z,994.7
2022-09-28T11:02:45.797Z,994.7
2022-09-28T11:03:45.747Z,994.7
2022-09-28T11:05:45.771Z,994.7
2022-09-28T11:06:45.770Z,994.7
2022-09-28T11:07:45.751Z,994.7
2022-09-28T11:08:45.761Z,994.7
2022-09-28T11:09:47.894Z,994.7
2022-09-28T11:10:45.769Z,994.7
2022-09-28T11:11:45.754Z,994.7
2022-09-28T11:12:45.747Z,994.7
2022-09-28T11:13:45.766Z,994.6
2022-09-28T11:14:45.754Z,994.6
2022-09-28T11:15:45.750Z,994.6
2022-09-28T11:16:45.895Z,994.5
2022-09-28T11:18:45.773Z,994.6
2022-09-28T11:19:46.145Z,994.6
2022-09-28T11:20:45.820Z,994.5
2022-09-28T11:21:45.750Z,994.6
2022-09-28T11:22:45.749Z,994.6
2022-09-28T11:23:45.756Z,994.6
2022-09-28T11:24:45.762Z,994.6
2022-09-28T11:25:45.755Z,994.6
2022-09-28T11:26:45.762Z,994.6
2022-09-28T11:27:45.753Z,994.6
2022-09-28T11:28:45.766Z,994.6
2022-09-28T11:29:45.758Z,994.6
2022-09-28T11:30:45.860Z,994.6
2022-09-28T11:31:45.760Z,994.6
2022-09-28T11:32:45.770Z,994.6
2022-09-28T11:33:45.767Z,994.7
2022-09-28T11:34:58.497Z,994.7
2022-09-28T11:35:45.766Z,994.6
2022-09-28T11:36:45.768Z,994.6
2022-09-28T11:37:45.808Z,994.7
2022-09-28T11:39:45.764Z,994.6
2022-09-28T11:40:45.912Z,994.7
2022-09-28T11:41:45.792Z,994.7
2022-09-28T11:42:45.783Z,994.7
2022-09-28T11:43:45.772Z,994.6
2022-09-28T11:44:45.762Z,994.6
2022-09-28T11:45:45.821Z,994.6
2022-09-28T11:46:45.770Z,994.7
2022-09-28T11:47:45.761Z,994.7
2022-09-28T11:48:45.775Z,994.7
2022-09-28T11:49:45.775Z,994.7
2022-09-28T11:50:45.764Z,994.7
2022-09-28T11:51:45.764Z,994.7
2022-09-28T11:52:45.767Z,994.7
2022-09-28T11:53:45.774Z,994.8
2022-09-28T11:54:45.776Z,994.7
2022-09-28T11:55:45.766Z,994.7
2022-09-28T11:56:45.775Z,994.7
2022-09-28T11:57:45.774Z,994.7
2022-09-28T11:58:45.773Z,994.7
2022-09-28T11:59:45.781Z,994.7
2022-09-28T12:00:45.834Z,994.7
2022-09-28T12:01:45.784Z,994.7
2022-09-28T12:02:45.922Z,994.7
2022-09-28T12:03:45.921Z,994.7
2022-09-28T12:04:45.780Z,994.7
2022-09-28T12:05:45.774Z,994.7
2022-09-28T12:06:45.769Z,994.7
2022-09-28T12:07:45.782Z,994.7
2022-09-28T12:08:45.798Z,994.7
2022-09-28T12:09:45.782Z,994.7
2022-09-28T12:10:45.777Z,994.7
2022-09-28T12:11:45.773Z,994.7
2022-09-28T12:13:45.775Z,994.7
2022-09-28T12:14:45.787Z,994.7
2022-09-28T12:16:12.765Z,994.7
2022-09-28T12:17:05.073Z,994.7
2022-09-28T12:17:45.865Z,994.8
2022-09-28T12:18:45.829Z,994.8
2022-09-28T12:19:45.788Z,994.7
2022-09-28T12:20:45.784Z,994.8
2022-09-28T12:21:45.781Z,994.7
2022-09-28T12:22:45.779Z,994.7
2022-09-28T12:23:45.781Z,994.7
2022-09-28T12:24:45.799Z,994.7
2022-09-28T12:25:45.781Z,994.7
2022-09-28T12:26:45.790Z,994.7
2022-09-28T12:27:45.789Z,994.8
2022-09-28T12:28:45.784Z,994.7
2022-09-28T12:29:45.788Z,994.7
2022-09-28T12:31:45.792Z,994.7
2022-09-28T12:32:45.784Z,994.6
2022-09-28T12:33:45.790Z,994.7
2022-09-28T12:34:45.789Z,994.7
2022-09-28T12:35:45.781Z,994.6
2022-09-28T12:36:45.784Z,994.6
2022-09-28T12:37:45.790Z,994.6
2022-09-28T12:38:48.263Z,994.6
2022-09-28T12:39:57.413Z,994.6
2022-09-28T12:40:45.886Z,994.6
2022-09-28T12:41:45.789Z,994.6
2022-09-28T12:42:45.791Z,994.6
2022-09-28T12:43:45.792Z,994.6
2022-09-28T12:44:45.798Z,994.6
2022-09-28T12:46:09.822Z,994.6
2022-09-28T12:46:45.974Z,994.6
2022-09-28T12:48:50.079Z,994.6
2022-09-28T12:50:56.073Z,994.6
2022-09-28T12:52:45.899Z,994.5
2022-09-28T12:53:45.802Z,994.6
2022-09-28T12:54:45.791Z,994.6
2022-09-28T12:55:45.795Z,994.5
2022-09-28T12:56:45.797Z,994.5
2022-09-28T12:57:45.792Z,994.6
2022-09-28T12:58:45.811Z,994.5
2022-09-28T12:59:45.794Z,994.5
2022-09-28T13:00:45.788Z,994.6
2022-09-28T13:01:45.849Z,994.5
2022-09-28T13:02:45.893Z,994.6
2022-09-28T13:03:45.856Z,994.5
2022-09-28T13:04:45.797Z,994.6
2022-09-28T13:05:45.809Z,994.6
2022-09-28T13:07:45.835Z,994.6
2022-09-28T13:08:45.822Z,994.6
2022-09-28T13:09:45.830Z,994.6
2022-09-28T13:10:45.824Z,994.6
2022-09-28T13:11:45.797Z,994.6
2022-09-28T13:12:45.828Z,994.6
2022-09-28T13:13:45.799Z,994.6
2022-09-28T13:14:45.804Z,994.6
2022-09-28T13:15:45.867Z,994.5
2022-09-28T13:17:45.805Z,994.5
2022-09-28T13:18:45.817Z,994.5
2022-09-28T13:19:45.804Z,994.6
2022-09-28T13:20:45.810Z,994.5
2022-09-28T13:21:45.834Z,994.6
2022-09-28T13:22:45.815Z,994.5
2022-09-28T13:23:45.811Z,994.5
2022-09-28T13:24:45.811Z,994.5
2022-09-28T13:25:45.803Z,994.5
2022-09-28T13:26:45.802Z,994.5
2022-09-28T13:27:45.809Z,994.5
2022-09-28T13:28:45.809Z,994.5
2022-09-28T13:29:45.813Z,994.5
2022-09-28T13:30:45.971Z,994.5
2022-09-28T13:31:45.816Z,994.4
2022-09-28T13:32:45.830Z,994.4
2022-09-28T13:34:45.814Z,994.4
2022-09-28T13:35:45.813Z,994.4
2022-09-28T13:36:48.190Z,994.4
2022-09-28T13:37:45.826Z,994.4
2022-09-28T13:38:45.819Z,994.4
2022-09-28T13:39:45.827Z,994.4
2022-09-28T13:40:45.853Z,994.4
2022-09-28T13:41:45.837Z,994.4
2022-09-28T13:42:45.826Z,994.4
2022-09-28T13:43:45.816Z,994.4
2022-09-28T13:44:45.819Z,994.4
2022-09-28T13:45:45.841Z,994.4
2022-09-28T13:46:45.820Z,994.4
2022-09-28T13:47:45.827Z,994.3